Neosho, MO (64850)

2:30 PM CST on March 06, 2015 (GMT -0600)
APRSWXNET Neosho MO US | Change Station
CLOSE
Current Station
Personal Weather Station
Location: Neosho, MO
Elevation: 1023 ft
Nearby Weather Stations

Elev 1023 ft 36.87 °N, 94.37 °W | Updated 28 minutes ago

Clear
Clear
50 °F
Feels Like 44 °F
N
18
Wind Variable Wind from SSW
Gusts 25.0 mph

Today
High -- | Low -- °F
--% Chance of Precip.
Yesterday
High -- | Low -- °F
Precip. -- in
6:41 AM 6:16 PM
Full, 99% visible
Pressure 30.36 in
Visibility 10.0 miles
Clouds Clear
Windchill 44 °F
Dew Point 26 °F
Humidity 39%
Rainfall in
Snow Depth Not available.
UV 5 out of 12
Pollen 4.80 out of 12
Air Quality Not available.
Flu Activity Not available.
METAR KHFJ 062015Z AUTO 21011KT 10SM CLR 09/M01 A3036 RMK AO2

More Conditions Fewer Conditions

Pressure 30.36 in
Visibility 10.0 miles
Clouds Clear
Windchill 44 °F
Dew Point 26 °F
Humidity 39%
Rainfall in
Snow Depth Not available.
UV 5 out of 12
Pollen 4.80 out of 12
Air Quality Not available.
Flu Activity Not available.
METAR KHFJ 062015Z AUTO 21011KT 10SM CLR 09/M01 A3036 RMK AO2

More Conditions Fewer Conditions

10-Day Weather Forecast

Almanac

Astronomy

Mar. 06, 2015 Rise Set
Actual Time
Civil Twilight
Nautical Twilight
Astronomical Twilight
Moon
Length of Visible Light
Length of Day
Tomorrow will be .
, % of the Moon is Illuminated

Today's Extremes

State Highs State Lows

Community

WunderPhotos

Upload Photos

1,803,389 photos uploaded!

WunderBlogs® & News

Nearby

Air Quality

  Air Quality AQ Index Pollutant
Not available.

Snow Depth

Station Depth Elevation

Earthquake Activity

City Distance Mag. Time & Date
Minimum magnitude displayed is 2.5.

Coastal Water Temperatures

Place Temperature

Nearby Weather Stations